createdAt,value
2018-07-14T00:00:34.575Z,15.80
2018-07-14T00:03:03.378Z,15.80
2018-07-14T00:05:32.149Z,15.80
2018-07-14T00:08:00.942Z,15.80
2018-07-14T00:10:29.706Z,15.80
2018-07-14T00:12:58.488Z,15.70
2018-07-14T00:15:27.258Z,15.60
2018-07-14T00:17:56.038Z,15.50
2018-07-14T00:20:24.833Z,15.50
2018-07-14T00:22:53.610Z,15.50
2018-07-14T00:25:27.370Z,15.40
2018-07-14T00:27:56.170Z,15.40
2018-07-14T00:30:24.954Z,15.30
2018-07-14T00:32:53.789Z,15.30
2018-07-14T00:35:22.561Z,15.30
2018-07-14T00:37:51.389Z,15.30
2018-07-14T00:40:20.151Z,15.30
2018-07-14T00:42:48.966Z,15.30
2018-07-14T00:45:24.250Z,15.30
2018-07-14T00:47:53.042Z,15.30
2018-07-14T00:50:21.822Z,15.20
2018-07-14T00:52:50.690Z,15.30
2018-07-14T00:55:19.478Z,15.30
2018-07-14T00:57:48.265Z,15.30
2018-07-14T01:00:17.055Z,15.20
2018-07-14T01:02:45.849Z,15.20
2018-07-14T01:05:14.623Z,15.20
2018-07-14T01:07:43.409Z,15.20
2018-07-14T01:10:12.200Z,15.30
2018-07-14T01:12:40.979Z,15.20
2018-07-14T01:15:09.711Z,15.20
2018-07-14T01:17:38.513Z,15.20
2018-07-14T01:20:07.379Z,15.10
2018-07-14T01:22:36.168Z,15.10
2018-07-14T01:25:05.011Z,15.10
2018-07-14T01:27:33.761Z,15.10
2018-07-14T01:30:02.583Z,15.00
2018-07-14T01:32:31.353Z,14.90
2018-07-14T01:35:00.134Z,14.90
2018-07-14T01:37:28.902Z,14.80
2018-07-14T01:39:57.676Z,14.80
2018-07-14T01:42:26.422Z,14.80
2018-07-14T01:44:55.194Z,14.80
2018-07-14T01:47:23.946Z,14.80
2018-07-14T01:52:21.163Z,14.80
2018-07-14T01:54:49.950Z,14.70
2018-07-14T01:57:18.726Z,14.80
2018-07-14T01:59:47.496Z,14.80
2018-07-14T02:02:16.251Z,14.90
2018-07-14T02:04:45.147Z,14.90
2018-07-14T02:07:14.063Z,14.90
2018-07-14T02:09:42.830Z,14.90
2018-07-14T02:12:11.668Z,14.90
2018-07-14T02:14:40.498Z,15.00
2018-07-14T02:17:09.485Z,15.00
2018-07-14T02:19:38.253Z,15.10
2018-07-14T02:22:07.034Z,15.10
2018-07-14T02:24:35.816Z,15.20
2018-07-14T02:27:04.626Z,15.10
2018-07-14T02:29:33.411Z,15.20
2018-07-14T02:32:02.222Z,15.30
2018-07-14T02:34:30.990Z,15.30
2018-07-14T02:36:59.783Z,15.40
2018-07-14T02:39:28.516Z,15.40
2018-07-14T02:41:57.287Z,15.50
2018-07-14T02:44:26.074Z,15.60
2018-07-14T02:46:54.847Z,15.70
2018-07-14T02:49:23.626Z,15.90
2018-07-14T02:51:52.431Z,16.10
2018-07-14T02:54:21.238Z,16.30
2018-07-14T02:56:50.306Z,16.30
2018-07-14T02:59:19.109Z,16.40
2018-07-14T03:01:48.026Z,16.40
2018-07-14T03:04:16.851Z,16.50
2018-07-14T03:06:45.642Z,16.50
2018-07-14T03:09:14.465Z,16.60
2018-07-14T03:11:43.230Z,16.60
2018-07-14T03:14:12.024Z,16.70
2018-07-14T03:16:40.786Z,16.70
2018-07-14T03:19:09.566Z,16.80
2018-07-14T03:21:38.362Z,16.80
2018-07-14T03:24:07.125Z,16.80
2018-07-14T03:26:35.892Z,16.90
2018-07-14T03:29:04.735Z,17.00
2018-07-14T03:34:01.878Z,17.10
2018-07-14T03:36:30.682Z,17.30
2018-07-14T03:38:59.458Z,17.30
2018-07-14T03:41:28.274Z,17.40
2018-07-14T03:43:57.029Z,17.50
2018-07-14T03:46:25.790Z,17.60
2018-07-14T03:48:54.566Z,17.60
2018-07-14T03:51:23.342Z,17.60
2018-07-14T03:53:52.139Z,17.70
2018-07-14T03:56:20.907Z,17.70
2018-07-14T03:58:50.081Z,17.80
2018-07-14T04:01:18.931Z,17.80
2018-07-14T04:03:47.678Z,17.80
2018-07-14T04:06:16.450Z,17.80
2018-07-14T04:08:45.275Z,17.80
2018-07-14T04:11:14.044Z,17.80
2018-07-14T04:13:42.832Z,17.80
2018-07-14T04:16:11.595Z,17.80
2018-07-14T04:18:40.354Z,17.80
2018-07-14T04:21:09.154Z,17.70
2018-07-14T04:23:37.913Z,17.70
2018-07-14T04:26:06.698Z,17.70
2018-07-14T04:28:35.473Z,17.70
2018-07-14T04:31:04.238Z,17.80
2018-07-14T04:33:33.012Z,17.80
2018-07-14T04:36:01.804Z,17.90
2018-07-14T04:38:30.788Z,17.90
2018-07-14T04:40:59.550Z,18.00
2018-07-14T04:43:28.337Z,18.00
2018-07-14T04:45:57.106Z,18.10
2018-07-14T04:48:25.836Z,18.10
2018-07-14T04:50:54.609Z,18.20
2018-07-14T04:53:23.406Z,18.30
2018-07-14T04:55:52.128Z,18.40
2018-07-14T04:58:20.906Z,18.50
2018-07-14T05:00:49.708Z,18.50
2018-07-14T05:03:18.594Z,18.60
2018-07-14T05:05:47.390Z,18.70
2018-07-14T05:08:16.186Z,18.70
2018-07-14T05:10:44.959Z,18.80
2018-07-14T05:13:13.740Z,19.00
2018-07-14T05:15:42.506Z,19.10
2018-07-14T05:18:11.277Z,19.10
2018-07-14T05:20:40.045Z,19.20
2018-07-14T05:23:08.797Z,19.40
2018-07-14T05:25:37.618Z,19.40
2018-07-14T05:28:06.474Z,19.50
2018-07-14T05:30:35.302Z,19.60
2018-07-14T05:35:32.487Z,19.80
2018-07-14T05:38:01.262Z,19.80
2018-07-14T05:40:30.135Z,20.00
2018-07-14T05:42:59.044Z,20.10
2018-07-14T05:45:28.081Z,20.20
2018-07-14T05:47:56.850Z,20.30
2018-07-14T05:50:25.767Z,20.40
2018-07-14T05:52:54.554Z,20.50
2018-07-14T05:55:23.870Z,20.60
2018-07-14T05:57:52.650Z,20.80
2018-07-14T06:00:21.446Z,21.00
2018-07-14T06:02:50.208Z,21.10
2018-07-14T06:05:19.058Z,21.20
2018-07-14T06:07:47.894Z,21.20
2018-07-14T06:10:16.726Z,21.30
2018-07-14T06:12:45.514Z,21.40
2018-07-14T06:15:14.354Z,21.70
2018-07-14T06:17:43.142Z,21.80
2018-07-14T06:20:11.958Z,22.00
2018-07-14T06:22:40.811Z,22.10
2018-07-14T06:25:09.606Z,22.30
2018-07-14T06:27:38.418Z,22.30
2018-07-14T06:30:08.209Z,22.40
2018-07-14T06:32:36.983Z,22.30
2018-07-14T06:35:05.882Z,22.30
2018-07-14T06:37:34.649Z,22.30
2018-07-14T06:40:03.518Z,22.60
2018-07-14T06:42:32.302Z,22.80
2018-07-14T06:45:01.074Z,23.00
2018-07-14T06:47:29.919Z,23.10
2018-07-14T06:49:58.694Z,23.20
2018-07-14T06:52:27.481Z,23.30
2018-07-14T06:54:56.354Z,23.30
2018-07-14T06:57:25.206Z,23.40
2018-07-14T06:59:54.290Z,23.50
2018-07-14T07:02:23.111Z,23.60
2018-07-14T07:04:51.976Z,23.60
2018-07-14T07:07:20.728Z,23.70
2018-07-14T07:09:49.582Z,23.70
2018-07-14T07:12:18.360Z,23.60
2018-07-14T07:14:47.158Z,23.90
2018-07-14T07:17:15.934Z,24.00
2018-07-14T07:19:44.977Z,24.00
2018-07-14T07:22:13.809Z,24.00
2018-07-14T07:24:42.675Z,24.10
2018-07-14T07:27:11.494Z,24.00
2018-07-14T07:29:40.268Z,23.80
2018-07-14T07:32:09.325Z,23.50
2018-07-14T07:34:38.171Z,23.50
2018-07-14T07:37:07.026Z,23.50
2018-07-14T07:39:35.770Z,23.50
2018-07-14T07:42:04.561Z,23.70
2018-07-14T07:44:33.646Z,23.70
2018-07-14T07:47:02.442Z,23.90
2018-07-14T07:49:31.242Z,24.00
2018-07-14T07:52:00.038Z,24.10
2018-07-14T07:54:28.818Z,24.20
2018-07-14T07:56:57.626Z,24.20
2018-07-14T07:59:26.510Z,24.30
2018-07-14T08:01:55.384Z,24.50
2018-07-14T08:04:24.162Z,24.20
2018-07-14T08:06:52.935Z,24.20
2018-07-14T08:09:21.992Z,24.20
2018-07-14T08:11:50.818Z,24.30
2018-07-14T08:14:19.610Z,24.30
2018-07-14T08:16:48.379Z,24.30
2018-07-14T08:19:17.174Z,24.40
2018-07-14T08:21:46.060Z,24.40
2018-07-14T08:24:14.861Z,24.50
2018-07-14T08:26:43.667Z,24.60
2018-07-14T08:29:12.450Z,24.60
2018-07-14T08:31:41.557Z,24.80
2018-07-14T08:34:10.696Z,25.00
2018-07-14T08:36:39.509Z,25.70
2018-07-14T08:39:08.714Z,26.10
2018-07-14T08:41:37.590Z,26.60
2018-07-14T08:44:06.455Z,26.80
2018-07-14T08:46:35.226Z,27.20
2018-07-14T08:49:04.367Z,27.40
2018-07-14T08:51:33.196Z,28.10
2018-07-14T08:54:01.945Z,28.30
2018-07-14T08:56:30.722Z,28.70
2018-07-14T08:58:59.579Z,28.60
2018-07-14T09:01:28.354Z,29.20
2018-07-14T09:03:57.141Z,29.30
2018-07-14T09:06:25.948Z,29.90
2018-07-14T09:08:54.710Z,29.80
2018-07-14T09:11:23.770Z,29.80
2018-07-14T09:13:52.530Z,30.20
2018-07-14T09:16:21.723Z,30.30
2018-07-14T09:18:50.522Z,30.30
2018-07-14T09:21:19.342Z,30.80
2018-07-14T09:23:48.127Z,30.40
2018-07-14T09:26:16.994Z,30.00
2018-07-14T09:28:45.762Z,29.90
2018-07-14T09:31:14.529Z,30.00
2018-07-14T09:33:43.306Z,30.10
2018-07-14T09:36:12.131Z,29.90
2018-07-14T09:38:40.926Z,29.70
2018-07-14T09:41:09.774Z,29.30
2018-07-14T09:43:38.586Z,29.00
2018-07-14T09:46:07.411Z,28.60
2018-07-14T09:48:36.194Z,28.30
2018-07-14T09:51:04.996Z,28.40
2018-07-14T09:53:33.790Z,28.50
2018-07-14T09:56:02.906Z,28.60
2018-07-14T09:58:31.708Z,28.70
2018-07-14T10:01:05.807Z,29.10
2018-07-14T10:03:34.794Z,29.00
2018-07-14T10:06:03.614Z,28.80
2018-07-14T10:08:32.847Z,28.90
2018-07-14T10:11:01.631Z,29.00
2018-07-14T10:13:30.422Z,28.90
2018-07-14T10:15:59.702Z,28.90
2018-07-14T10:18:28.492Z,28.80
2018-07-14T10:20:57.632Z,29.20
2018-07-14T10:23:26.459Z,29.30
2018-07-14T10:25:55.407Z,29.00
2018-07-14T10:28:24.090Z,28.80
2018-07-14T10:30:52.898Z,29.00
2018-07-14T10:33:21.790Z,29.00
2018-07-14T10:35:50.587Z,29.00
2018-07-14T10:38:19.424Z,29.10
2018-07-14T10:40:48.471Z,29.10
2018-07-14T10:43:17.262Z,29.00
2018-07-14T10:45:46.158Z,28.60
2018-07-14T10:48:14.944Z,28.50
2018-07-14T10:50:43.726Z,28.50
2018-07-14T10:53:12.516Z,28.50
2018-07-14T10:55:41.290Z,28.60
2018-07-14T10:58:10.096Z,28.70
2018-07-14T11:00:38.907Z,28.60
2018-07-14T11:03:07.707Z,28.60
2018-07-14T11:05:36.486Z,28.70
2018-07-14T11:08:05.299Z,28.80
2018-07-14T11:10:34.087Z,28.50
2018-07-14T11:13:03.246Z,28.60
2018-07-14T11:15:32.047Z,28.70
2018-07-14T11:18:00.815Z,28.40
2018-07-14T11:20:29.598Z,28.70
2018-07-14T11:22:58.430Z,28.90
2018-07-14T11:25:27.288Z,29.10
2018-07-14T11:27:56.180Z,29.30
2018-07-14T11:30:26.013Z,29.50
2018-07-14T11:32:54.873Z,29.40
2018-07-14T11:35:23.899Z,29.50
2018-07-14T11:37:53.142Z,29.60
2018-07-14T11:40:22.156Z,29.60
2018-07-14T11:42:51.039Z,29.90
2018-07-14T11:45:19.850Z,29.80
2018-07-14T11:47:48.670Z,29.90
2018-07-14T11:50:17.426Z,29.90
2018-07-14T11:52:46.225Z,30.00
2018-07-14T11:55:15.299Z,30.10
2018-07-14T11:57:44.213Z,29.90
2018-07-14T12:00:15.224Z,30.00
2018-07-14T12:02:44.342Z,30.10
2018-07-14T12:05:13.185Z,30.10
2018-07-14T12:07:42.354Z,29.90
2018-07-14T12:10:11.211Z,29.90
2018-07-14T12:12:40.071Z,29.90
2018-07-14T12:15:09.002Z,29.90
2018-07-14T12:17:37.783Z,29.90
2018-07-14T12:20:07.072Z,30.20
2018-07-14T12:22:35.876Z,30.30
2018-07-14T12:25:05.134Z,30.70
2018-07-14T12:27:34.026Z,30.90
2018-07-14T12:30:03.824Z,30.80
2018-07-14T12:32:33.069Z,30.80
2018-07-14T12:35:02.271Z,31.00
2018-07-14T12:37:31.409Z,31.10
2018-07-14T12:40:00.407Z,31.30
2018-07-14T12:42:29.207Z,31.40
2018-07-14T12:44:58.178Z,31.50
2018-07-14T12:47:26.979Z,31.50
2018-07-14T12:49:55.814Z,31.60
2018-07-14T12:52:24.616Z,31.80
2018-07-14T12:54:54.106Z,31.80
2018-07-14T12:57:22.910Z,31.60
2018-07-14T12:59:51.883Z,31.70
2018-07-14T13:02:20.682Z,31.80
2018-07-14T13:04:49.547Z,32.00
2018-07-14T13:09:47.102Z,32.10
2018-07-14T13:12:15.932Z,32.20
2018-07-14T13:14:44.685Z,32.40
2018-07-14T13:17:13.600Z,32.40
2018-07-14T13:19:42.570Z,32.70
2018-07-14T13:22:11.358Z,33.20
2018-07-14T13:24:40.242Z,33.60
2018-07-14T13:27:09.037Z,34.10
2018-07-14T13:29:37.822Z,34.50
2018-07-14T13:32:06.818Z,35.30
2018-07-14T13:34:35.626Z,36.10
2018-07-14T13:37:04.787Z,36.60
2018-07-14T13:39:33.590Z,36.70
2018-07-14T13:42:02.413Z,37.30
2018-07-14T13:44:31.246Z,37.40
2018-07-14T13:47:00.107Z,38.00
2018-07-14T13:49:28.906Z,37.90
2018-07-14T13:51:57.747Z,38.70
2018-07-14T13:54:26.631Z,38.90
2018-07-14T13:56:55.713Z,39.20
2018-07-14T13:59:24.535Z,38.50
2018-07-14T14:01:53.335Z,39.00
2018-07-14T14:04:22.098Z,39.20
2018-07-14T14:06:50.916Z,38.40
2018-07-14T14:09:19.716Z,39.40
2018-07-14T14:11:48.488Z,40.00
2018-07-14T14:14:17.288Z,40.30
2018-07-14T14:16:46.150Z,40.70
2018-07-14T14:19:14.934Z,40.70
2018-07-14T14:21:44.211Z,40.20
2018-07-14T14:24:13.086Z,40.20
2018-07-14T14:26:41.874Z,39.60
2018-07-14T14:29:10.666Z,39.10
2018-07-14T14:31:40.292Z,39.10
2018-07-14T14:34:09.119Z,38.70
2018-07-14T14:36:38.006Z,38.90
2018-07-14T14:39:07.807Z,39.50
2018-07-14T14:41:37.414Z,39.30
2018-07-14T14:44:06.318Z,38.60
2018-07-14T14:46:35.133Z,39.20
2018-07-14T14:49:04.314Z,39.20
2018-07-14T14:51:33.596Z,39.40
2018-07-14T14:54:02.373Z,39.50
2018-07-14T14:56:31.220Z,39.00
2018-07-14T14:59:00.031Z,39.20
2018-07-14T15:01:28.875Z,39.20
2018-07-14T15:03:57.671Z,39.20
2018-07-14T15:06:26.510Z,38.80
2018-07-14T15:08:55.610Z,38.70
2018-07-14T15:11:24.482Z,39.40
2018-07-14T15:13:53.324Z,39.70
2018-07-14T15:16:22.199Z,40.20
2018-07-14T15:18:51.309Z,40.40
2018-07-14T15:21:20.185Z,41.10
2018-07-14T15:23:49.603Z,41.60
2018-07-14T15:26:18.456Z,41.50
2018-07-14T15:28:47.351Z,41.30
2018-07-14T15:31:16.198Z,41.10
2018-07-14T15:33:44.976Z,40.10
2018-07-14T15:36:13.873Z,40.30
2018-07-14T15:38:42.760Z,39.50
2018-07-14T15:41:11.585Z,39.50
2018-07-14T15:43:41.234Z,39.80
2018-07-14T15:46:10.053Z,40.10
2018-07-14T15:48:39.020Z,39.90
2018-07-14T15:51:07.844Z,39.50
2018-07-14T15:53:36.990Z,39.50
2018-07-14T15:56:06.620Z,40.10
2018-07-14T15:58:35.491Z,40.00
2018-07-14T16:01:04.370Z,39.90
2018-07-14T16:03:33.413Z,40.00
2018-07-14T16:06:02.284Z,40.10
2018-07-14T16:08:31.558Z,40.10
2018-07-14T16:11:00.391Z,40.10
2018-07-14T16:13:29.243Z,40.00
2018-07-14T16:15:58.038Z,39.90
2018-07-14T16:18:26.858Z,39.90
2018-07-14T16:20:55.718Z,39.20
2018-07-14T16:23:24.548Z,39.00
2018-07-14T16:25:53.370Z,38.40
2018-07-14T16:28:22.210Z,38.30
2018-07-14T16:30:51.045Z,38.40
2018-07-14T16:33:20.017Z,37.90
2018-07-14T16:35:49.034Z,37.80
2018-07-14T16:38:18.056Z,37.70
2018-07-14T16:40:47.143Z,37.10
2018-07-14T16:43:15.968Z,36.50
2018-07-14T16:48:13.256Z,36.30
2018-07-14T16:50:42.103Z,36.30
2018-07-14T16:53:10.989Z,35.20
2018-07-14T16:55:39.887Z,34.30
2018-07-14T16:58:08.735Z,34.00
2018-07-14T17:00:37.836Z,34.10
2018-07-14T17:03:13.166Z,33.60
2018-07-14T17:05:41.915Z,33.60
2018-07-14T17:08:10.721Z,33.50
2018-07-14T17:10:39.512Z,33.50
2018-07-14T17:13:08.309Z,33.00
2018-07-14T17:15:37.106Z,32.90
2018-07-14T17:18:05.902Z,32.80
2018-07-14T17:20:34.762Z,32.80
2018-07-14T17:23:03.648Z,32.40
2018-07-14T17:25:32.475Z,32.10
2018-07-14T17:28:01.339Z,32.10
2018-07-14T17:30:30.722Z,31.80
2018-07-14T17:32:59.495Z,31.60
2018-07-14T17:35:28.389Z,31.30
2018-07-14T17:37:57.183Z,31.50
2018-07-14T17:40:25.998Z,31.40
2018-07-14T17:42:54.804Z,31.50
2018-07-14T17:45:23.879Z,31.20
2018-07-14T17:47:52.665Z,30.80
2018-07-14T17:50:21.472Z,30.50
2018-07-14T17:52:50.333Z,30.00
2018-07-14T17:55:19.183Z,29.50
2018-07-14T18:00:16.511Z,28.80
2018-07-14T18:02:45.254Z,28.20
2018-07-14T18:05:14.109Z,27.80
2018-07-14T18:07:42.894Z,27.40
2018-07-14T18:10:11.746Z,27.00
2018-07-14T18:12:40.547Z,26.70
2018-07-14T18:15:09.341Z,26.40
2018-07-14T18:17:38.159Z,26.00
2018-07-14T18:20:07.317Z,25.70
2018-07-14T18:22:36.139Z,25.50
2018-07-14T18:25:04.902Z,25.30
2018-07-14T18:27:33.740Z,25.00
2018-07-14T18:30:02.566Z,24.60
2018-07-14T18:32:31.416Z,24.30
2018-07-14T18:35:00.201Z,24.00
2018-07-14T18:37:29.030Z,23.90
2018-07-14T18:39:57.834Z,23.70
2018-07-14T18:42:26.906Z,23.60
2018-07-14T18:44:55.788Z,23.50
2018-07-14T18:47:24.579Z,23.40
2018-07-14T18:49:53.716Z,23.40
2018-07-14T18:52:22.572Z,23.30
2018-07-14T18:57:19.706Z,23.00
2018-07-14T18:59:48.590Z,22.90
2018-07-14T19:02:17.699Z,22.70
2018-07-14T19:04:46.469Z,22.50
2018-07-14T19:07:15.542Z,22.40
2018-07-14T19:09:44.597Z,22.20
2018-07-14T19:12:13.406Z,22.10
2018-07-14T19:14:42.453Z,22.10
2018-07-14T19:17:11.266Z,22.00
2018-07-14T19:19:40.394Z,22.00
2018-07-14T19:22:09.254Z,22.00
2018-07-14T19:24:38.079Z,22.00
2018-07-14T19:27:06.875Z,21.90
2018-07-14T19:29:35.653Z,21.90
2018-07-14T19:34:32.887Z,21.70
2018-07-14T19:37:01.711Z,21.50
2018-07-14T19:39:30.523Z,21.40
2018-07-14T19:41:59.439Z,21.40
2018-07-14T19:44:28.266Z,21.40
2018-07-14T19:46:57.318Z,21.30
2018-07-14T19:49:26.128Z,21.20
2018-07-14T19:51:54.910Z,21.10
2018-07-14T19:54:23.714Z,21.00
2018-07-14T19:56:52.528Z,20.90
2018-07-14T19:59:21.339Z,20.80
2018-07-14T20:01:50.202Z,20.80
2018-07-14T20:04:19.010Z,20.80
2018-07-14T20:06:47.821Z,20.70
2018-07-14T20:09:16.632Z,20.70
2018-07-14T20:11:45.446Z,20.60
2018-07-14T20:14:14.231Z,20.50
2018-07-14T20:16:43.054Z,20.50
2018-07-14T20:19:11.966Z,20.40
2018-07-14T20:21:41.018Z,20.30
2018-07-14T20:24:10.181Z,20.30
2018-07-14T20:26:39.244Z,20.20
2018-07-14T20:29:08.087Z,20.10
2018-07-14T20:31:36.940Z,20.10
2018-07-14T20:34:06.036Z,20.10
2018-07-14T20:36:34.769Z,20.00
2018-07-14T20:39:04.962Z,19.90
2018-07-14T20:41:33.879Z,19.90
2018-07-14T20:44:02.614Z,19.80
2018-07-14T20:46:31.412Z,19.80
2018-07-14T20:49:00.788Z,19.70
2018-07-14T20:51:29.583Z,19.60
2018-07-14T20:53:58.398Z,19.50
2018-07-14T20:56:27.514Z,19.40
2018-07-14T20:58:56.344Z,19.40
2018-07-14T21:01:25.199Z,19.40
2018-07-14T21:03:53.994Z,19.30
2018-07-14T21:06:22.795Z,19.20
2018-07-14T21:08:51.577Z,19.00
2018-07-14T21:11:20.319Z,18.90
2018-07-14T21:13:49.370Z,18.80
2018-07-14T21:16:18.495Z,18.80
2018-07-14T21:18:47.630Z,18.80
2018-07-14T21:21:16.645Z,18.70
2018-07-14T21:23:45.345Z,18.60
2018-07-14T21:26:14.150Z,18.60
2018-07-14T21:28:42.946Z,18.50
2018-07-14T21:31:11.736Z,18.50
2018-07-14T21:33:40.528Z,18.50
2018-07-14T21:36:09.638Z,18.50
2018-07-14T21:38:38.853Z,18.40
2018-07-14T21:41:07.650Z,18.40
2018-07-14T21:43:36.424Z,18.40
2018-07-14T21:46:05.664Z,18.30
2018-07-14T21:48:34.771Z,18.30
2018-07-14T21:51:03.804Z,18.20
2018-07-14T21:53:32.723Z,18.10
2018-07-14T21:56:01.531Z,18.10
2018-07-14T21:58:30.313Z,18.00
2018-07-14T22:02:05.950Z,17.90
2018-07-14T22:04:36.019Z,17.80
2018-07-14T22:07:04.854Z,17.90
2018-07-14T22:09:33.730Z,17.90
2018-07-14T22:12:02.706Z,17.90
2018-07-14T22:14:31.478Z,17.80
2018-07-14T22:17:00.289Z,17.80
2018-07-14T22:19:29.082Z,17.80
2018-07-14T22:21:57.865Z,17.70
2018-07-14T22:24:26.645Z,17.70
2018-07-14T22:29:23.938Z,17.70
2018-07-14T22:31:52.758Z,17.70
2018-07-14T22:34:21.512Z,17.70
2018-07-14T22:36:50.346Z,17.70
2018-07-14T22:39:19.143Z,17.60
2018-07-14T22:41:49.144Z,17.30
2018-07-14T22:44:18.836Z,17.20
2018-07-14T22:46:47.794Z,17.10
2018-07-14T22:49:16.608Z,17.10
2018-07-14T22:51:45.378Z,17.10
2018-07-14T22:54:14.157Z,17.10
2018-07-14T22:56:42.943Z,17.00
2018-07-14T23:01:40.143Z,16.90
2018-07-14T23:04:08.978Z,16.90
2018-07-14T23:06:37.754Z,17.00
2018-07-14T23:09:07.739Z,16.90
2018-07-14T23:11:36.527Z,16.90
2018-07-14T23:14:05.342Z,16.80
2018-07-14T23:16:34.178Z,16.80
2018-07-14T23:19:02.950Z,16.80
2018-07-14T23:21:31.747Z,16.80
2018-07-14T23:24:00.582Z,16.80
2018-07-14T23:26:29.350Z,16.80
2018-07-14T23:28:58.162Z,16.80
2018-07-14T23:31:26.967Z,16.70
2018-07-14T23:33:55.755Z,16.60
2018-07-14T23:36:24.542Z,16.60
2018-07-14T23:38:53.354Z,16.50
2018-07-14T23:41:22.130Z,16.50
2018-07-14T23:43:51.474Z,16.30
2018-07-14T23:46:20.401Z,16.20
2018-07-14T23:48:49.163Z,16.20
2018-07-14T23:51:17.943Z,16.20
2018-07-14T23:53:46.733Z,16.10
2018-07-14T23:56:15.612Z,16.10
2018-07-14T23:58:44.333Z,16.10
